Flight Track Log - Related Links

Times and Time Zones

All times are in EDT time to prevent confusion due to time zone crossing. See the N618JB flight status page for this flight to view local times or setup timezone preferences in your user account.

Time Position Orientation Groundspeed Altitude Reporting Facility
EDT Latitude Longitude Course Direction KTS MPH feet Rate Location/Type
Wed 09:56:48 40.7333 -74.1333 360° North 184 212 1,900  Level New TRACON
Wed 09:57:48 40.7833 -74.1333 360° North 248 285 4,100 2,050 Climbing New TRACON
Wed 09:58:48 40.7500 -74.2000 237° Southwest 263 303 6,000 905 Climbing New TRACON
Wed 09:59:54 40.6667 -74.2333 197° South 277 319 6,000  Level New TRACON
Wed 10:02:05 40.5100 -74.2594 187° South 280 322 6,000  Level New Center
Wed 10:03:06 40.4422 -74.2261 159° South 280 322 6,000  Level New Center
Wed 10:04:04 40.3561 -74.1836 159° South 292 336 6,000 1,059 Level New Center
Wed 10:05:05 40.2858 -74.1639 168° South 292 336 8,100 2,450 Climbing New Center
Wed 10:06:04 40.1939 -74.1675 182° South 292 336 10,900 1,866 Climbing New Center
Wed 10:07:04 40.1119 -74.1172 155° Southeast 325 374 11,800 1,300 Climbing New Center
Wed 10:08:04 40.0703 -73.9717 110° East 386 444 13,500 1,900 Climbing New Center
Wed 10:09:04 40.0350 -73.8100 106° East 421 484 15,600 2,182 Climbing New Center
Wed 10:10:05 39.9978 -73.6294 105° East 460 529 17,900 1,967 Climbing New Center
Wed 10:11:06 39.9581 -73.4628 107° East 472 543 19,600 1,916 Climbing New Center
Wed 10:12:04 39.9242 -73.2908 104° East 478 550 21,700 1,664 Climbing New Center
Wed 10:13:05 39.8861 -73.1217 106° East 483 556 22,900 1,190 Climbing New Center
Wed 10:14:05 39.8458 -72.9472 107° East 488 562 24,100 1,160 Climbing New Center
Wed 10:15:04 39.8008 -72.7758 109° East 494 568 25,200 1,041 Climbing New Center
Wed 10:16:06 39.6967 -72.6514 137° Southeast 494 568 26,200 1,050 Climbing New Center
Wed 10:17:04 39.5817 -72.5431 144° Southeast 488 562 27,300 1,100 Climbing New Center
Wed 10:18:06 39.4664 -72.4381 145° Southeast 500 575 28,400 1,131 Climbing New Center
Wed 10:19:06 39.3511 -72.3358 146° Southeast 506 582 29,600 1,322 Climbing New Center
Wed 10:20:04 39.2378 -72.2314 144° Southeast 506 582 31,000 1,119 Climbing New Center
Wed 10:21:04 39.1094 -72.1672 135° Southeast 490 564 31,800 893 Climbing New Center
Wed 10:22:05 38.9786 -72.1139 162° South 490 564 32,800 992 Climbing New Center
Wed 10:23:05 38.8500 -72.0556 161° South 490 564 33,800 942 Climbing New Center
Wed 10:24:06 38.7214 -71.9944 160° South 495 570 34,700 857 Climbing New Center
Wed 10:25:04 38.5906 -71.9392 162° South 495 570 35,500 1,017 Climbing New Center
Wed 10:26:04 38.4639 -71.8839 161° South 495 570 36,700 744 Climbing New Center
Wed 10:27:05 38.3394 -71.8239 159° South 490 564 37,000 148 Climbing New Center
Wed 10:28:06 38.2128 -71.7769 164° South 479 551 37,000  Level New Center
Wed 10:29:05 38.0858 -71.7169 160° South 479 551 37,000  Level New Center
Wed 10:30:06 37.9592 -71.6681 163° South 479 551 37,000  Level New Center
Wed 10:31:03 37.8344 -71.6086 159° South 479 551 37,000  Level New Center
Wed 10:32:04 37.7056 -71.5519 161° South 479 551 37,000  Level New Center
Wed 10:33:04 37.5828 -71.4956 160° South 479 551 37,000  Level New Center
Wed 10:34:05 37.4517 -71.4497 164° South 479 551 37,000  Level New Center
Wed 10:35:06 37.3561 -71.3756 148° Southeast 484 557 37,000  Level New Center
Wed 10:36:04 37.2147 -71.3014 157° South 479 551 37,000 -51 Level New Center
Wed 10:37:04 37.1169 -71.2433 155° Southeast 485 558 36,900  Descending New Center
Wed 10:39:00 36.9056 -71.0936 155° Southeast  Level FlightAware
Wed 10:46:00 36.1029 -70.6327 155° Southeast  Level FlightAware
Wed 10:47:00 35.9881 -70.5676 155° Southeast  Level FlightAware
Wed 10:48:00 35.8732 -70.5027 155° Southeast  Level FlightAware
Wed 10:49:00 35.7583 -70.4380 155° Southeast  Level FlightAware
Wed 10:49:25 35.7667 -70.4500 168° South 469 540 37,000  Level New Oceanic
Wed 10:50:00 35.6355 -70.4030 168° South  Level FlightAware
Wed 10:51:00 35.5120 -70.3703 168° South  Level FlightAware
Wed 10:52:00 35.3886 -70.3377 168° South  Level FlightAware
Wed 10:53:00 35.2651 -70.3053 168° South  Level FlightAware
Wed 10:54:00 35.1416 -70.2729 168° South  Level FlightAware
Wed 10:55:00 34.7431 -70.1822 168° South 469 540 37,000  Level FlightAware
Wed 10:56:00 34.6151 -70.1492 168° South 469 540 37,000  Level FlightAware
Wed 10:57:00 34.4871 -70.1163 168° South 469 540 37,000  Level FlightAware
Wed 10:58:00 34.3591 -70.0835 168° South 469 540 37,000  Level FlightAware
Wed 10:59:00 34.2311 -70.0508 168° South 469 540 37,000  Level FlightAware
Wed 11:00:00 34.1031 -70.0182 168° South 469 540 37,000  Level FlightAware
Wed 11:01:00 33.9751 -69.9857 168° South 469 540 37,000  Level FlightAware
Wed 11:02:00 33.8470 -69.9533 168° South 469 540 37,000  Level FlightAware
Wed 11:03:00 33.7190 -69.9210 168° South 469 540 37,000  Level FlightAware
Wed 11:04:00 33.5910 -69.8888 168° South 469 540 37,000  Level FlightAware
Wed 11:05:00 33.4629 -69.8567 168° South 469 540 37,000  Level FlightAware
Wed 11:06:00 33.3348 -69.8247 168° South 469 540 37,000  Level FlightAware
Wed 11:07:00 33.2067 -69.7927 168° South 469 540 37,000  Level FlightAware
Wed 11:08:00 33.0787 -69.7609 168° South 469 540 37,000  Level FlightAware
Wed 11:09:00 32.9506 -69.7292 168° South 469 540 37,000  Level FlightAware
Wed 11:10:00 32.8224 -69.6975 168° South 469 540 37,000  Level FlightAware
Wed 11:11:00 32.6943 -69.6660 168° South 469 540 37,000  Level FlightAware
Wed 11:12:00 32.5662 -69.6345 168° South 469 540 37,000  Level FlightAware
Wed 11:13:00 32.4381 -69.6031 168° South 469 540 37,000  Level FlightAware
Wed 11:14:00 32.3100 -69.5718 168° South 469 540 37,000  Level FlightAware
Wed 11:15:00 32.1818 -69.5406 168° South 469 540 37,000  Level FlightAware
Wed 11:16:00 32.0537 -69.5095 168° South 469 540 37,000  Level FlightAware
Wed 11:17:00 31.9255 -69.4785 168° South 469 540 37,000  Level FlightAware
Wed 11:18:00 31.7973 -69.4475 168° South 469 540 37,000  Level FlightAware
Wed 11:19:00 31.6692 -69.4167 168° South 469 540 37,000  Level FlightAware
Wed 11:20:00 31.5410 -69.3859 168° South 469 540 37,000  Level FlightAware
Wed 11:21:00 31.4128 -69.3552 168° South 469 540 37,000  Level FlightAware
Wed 11:22:00 31.2846 -69.3246 168° South 469 540 37,000  Level FlightAware
Wed 11:23:00 31.1564 -69.2941 169° South 469 540 37,000  Level FlightAware
Wed 11:24:00 31.0282 -69.2637 169° South 469 540 37,000  Level FlightAware
Wed 11:25:00 30.9000 -69.2333 168° South 469 540 37,000  Level FlightAware
Wed 11:26:00 30.7675 -69.2018 168° South 469 540 37,000  Level FlightAware
Wed 11:26:31 30.9000 -69.2333 168° South 471 542 37,000  Level New Oceanic
Wed 11:27:00 30.6350 -69.1703 168° South 469 540 37,000  Level FlightAware
Wed 11:28:00 30.5025 -69.1390 168° South 469 540 37,000  Level FlightAware
Wed 11:29:00 30.3699 -69.1077 169° South 469 540 37,000  Level FlightAware
Wed 11:30:00 30.2374 -69.0765 169° South 469 540 37,000  Level FlightAware
Wed 11:31:00 30.1049 -69.0453 169° South 469 540 37,000  Level FlightAware
Wed 11:32:00 29.9905 -69.0186 169° South 471 542 37,000  Level FlightAware
Wed 11:33:00 29.8606 -68.9882 169° South 471 542 37,000  Level FlightAware
Wed 11:34:00 29.7306 -68.9579 169° South 471 542 37,000  Level FlightAware
Wed 11:35:00 29.6006 -68.9277 169° South 471 542 37,000  Level FlightAware
Wed 11:36:00 29.4707 -68.8976 169° South 471 542 37,000  Level FlightAware
Wed 11:37:00 29.3407 -68.8676 169° South 471 542 37,000  Level FlightAware
Wed 11:38:00 29.2107 -68.8376 169° South 471 542 37,000  Level FlightAware
Wed 11:39:00 29.0807 -68.8077 169° South 471 542 37,000  Level FlightAware
Wed 11:40:00 28.9507 -68.7779 169° South 471 542 37,000  Level FlightAware
Wed 11:41:00 28.8207 -68.7482 169° South 471 542 37,000  Level FlightAware
Wed 11:42:00 28.6907 -68.7185 169° South 471 542 37,000  Level FlightAware
Wed 11:43:00 28.5607 -68.6889 169° South 471 542 37,000  Level FlightAware
Wed 11:44:00 28.4306 -68.6594 169° South 471 542 37,000  Level FlightAware
Wed 11:45:00 28.3006 -68.6299 169° South 471 542 37,000  Level FlightAware
Wed 11:46:00 28.1706 -68.6005 169° South 471 542 37,000  Level FlightAware
Wed 11:47:00 28.0405 -68.5712 169° South 471 542 37,000  Level FlightAware
Wed 11:48:00 27.9105 -68.5420 169° South 471 542 37,000  Level FlightAware
Wed 11:49:00 27.7804 -68.5128 169° South 471 542 37,000  Level FlightAware
Wed 11:50:00 27.6503 -68.4837 169° South 471 542 37,000  Level FlightAware
Wed 11:50:55 27.9333 -68.5333 169° South 474 545 37,000  Level New Oceanic
Wed 11:51:00 27.5203 -68.4547 169° South 471 542 37,000  Level FlightAware
Wed 11:52:00 27.3902 -68.4258 169° South 471 542 37,000  Level FlightAware
Wed 11:53:00 27.2601 -68.3969 169° South 471 542 37,000  Level FlightAware
Wed 11:54:00 27.1300 -68.3680 169° South 471 542 37,000  Level FlightAware
Wed 11:55:00 26.9999 -68.3393 169° South 471 542 37,000  Level FlightAware
Wed 11:56:00 26.8698 -68.3106 169° South 471 542 37,000  Level FlightAware
Wed 11:57:00 26.7552 -68.2761 169° South 474 545 37,000  Level FlightAware
Wed 11:58:00 26.6243 -68.2479 169° South 474 545 37,000  Level FlightAware
Wed 11:59:00 26.4934 -68.2197 169° South 474 545 37,000  Level FlightAware
Wed 12:00:00 26.3624 -68.1916 169° South 474 545 37,000  Level FlightAware
Wed 12:01:00 26.2315 -68.1635 169° South 474 545 37,000  Level FlightAware
Wed 12:02:00 26.1005 -68.1355 169° South 474 545 37,000  Level FlightAware
Wed 12:03:00 25.9696 -68.1076 169° South 474 545 37,000  Level FlightAware
Wed 12:04:00 25.8386 -68.0797 169° South 474 545 37,000  Level FlightAware
Wed 12:05:00 25.7076 -68.0519 169° South 474 545 37,000  Level FlightAware
Wed 12:06:00 25.5767 -68.0242 169° South 474 545 37,000  Level FlightAware
Wed 12:07:00 25.4457 -67.9965 169° South 474 545 37,000  Level FlightAware
Wed 12:07:42 25.4667 -68.0000 169° South 473 544 37,000  Level New Oceanic
Wed 12:08:00 25.3147 -67.9689 169° South 474 545 37,000  Level FlightAware
Wed 12:09:00 25.1837 -67.9413 169° South 474 545 37,000  Level FlightAware
Wed 12:10:00 25.0527 -67.9138 169° South 474 545 37,000  Level FlightAware
Wed 12:11:00 24.9217 -67.8864 169° South 474 545 37,000  Level FlightAware
Wed 12:12:00 24.7907 -67.8590 169° South 474 545 37,000  Level FlightAware
Wed 12:13:00 24.5334 -67.8051 169° South 473 544 37,000  Level FlightAware
Wed 12:14:00 24.4000 -67.7775 169° South 473 544 37,000  Level FlightAware
Wed 12:15:00 24.2667 -67.7500 169° South 473 544 37,000  Level FlightAware
Wed 12:16:00 24.1405 -67.7233 169° South 473 544 37,000  Level FlightAware
Wed 12:17:00 24.0144 -67.6967 169° South 473 544 37,000  Level FlightAware
Wed 12:18:00 23.8882 -67.6701 169° South 473 544 37,000  Level FlightAware
Wed 12:19:00 23.7621 -67.6435 169° South 473 544 37,000  Level FlightAware
Wed 12:20:00 23.6359 -67.6171 169° South 473 544 37,000  Level FlightAware
Wed 12:20:51 23.6167 -67.6000 169° South 480 552 37,000  Level San Center
Wed 12:21:00 23.5097 -67.5906 169° South 473 544 37,000  Level FlightAware
Wed 12:21:51 23.4833 -67.5833 173° South 480 552 37,000  Level San Center
Wed 12:22:00 23.3836 -67.5642 169° South 473 544 37,000  Level FlightAware
Wed 12:22:52 23.3500 -67.5500 167° South 480 552 37,000  Level San Center
Wed 12:23:00 23.2574 -67.5379 169° South 473 544 37,000  Level FlightAware
Wed 12:23:52 23.2333 -67.5167 165° South 480 552 37,000  Level San Center
Wed 12:24:00 23.1312 -67.5116 169° South 473 544 37,000  Level FlightAware
Wed 12:24:52 23.0833 -67.5000 174° South 480 552 37,000  Level San Center
Wed 12:25:00 23.0050 -67.4854 169° South 473 544 37,000  Level FlightAware
Wed 12:25:53 22.9667 -67.4667 165° South 480 552 37,000  Level San Center
Wed 12:26:00 22.8788 -67.4592 169° South 473 544 37,000  Level FlightAware
Wed 12:26:53 22.8333 -67.4333 167° South 470 541 37,000  Level San Center
Wed 12:27:53 22.7000 -67.4167 173° South 480 552 37,000  Level San Center
Wed 12:28:54 22.5667 -67.3833 167° South 480 552 37,000  Level San Center
Wed 12:29:54 22.4333 -67.3667 173° South 480 552 37,000  Level San Center
Wed 12:30:54 22.3000 -67.3333 167° South 480 552 37,000  Level San Center
Wed 12:31:55 22.1667 -67.3000 167° South 480 552 37,000  Level San Center
Wed 12:32:41 22.2333 -67.3167 170° South 443 510 37,000  Level New Oceanic
Wed 12:33:55 21.9167 -67.2500 170° South 470 541 37,000  Level San Center
Wed 12:34:56 21.7833 -67.2333 173° South 470 541 37,000  Level San Center
Wed 12:35:56 21.6500 -67.2000 167° South 480 552 37,000  Level San Center
Wed 12:36:56 21.5167 -67.1667 167° South 480 552 37,000  Level San Center
Wed 12:37:57 21.3833 -67.1500 173° South 480 552 37,000  Level San Center
Wed 12:38:57 21.2500 -67.1167 167° South 480 552 37,000  Level San Center
Wed 12:39:57 21.1167 -67.0833 167° South 480 552 37,000  Level San Center
Wed 12:40:58 20.9833 -67.0500 167° South 480 552 37,000  Level San Center
Wed 12:41:58 20.8667 -67.0167 165° South 480 552 37,000  Level San Center
Wed 12:42:58 20.7333 -66.9833 167° South 480 552 37,000  Level San Center
Wed 12:43:59 20.6000 -66.9500 167° South 490 564 37,000  Level San Center
Wed 12:44:59 20.4667 -66.9167 167° South 490 564 37,000  Level San Center
Wed 12:45:59 20.3333 -66.8833 167° South 480 552 37,000 -150 Level San Center
Wed 12:46:59 20.2000 -66.8500 167° South 480 552 36,700 -1,240 Descending San Center
Wed 12:48:00 20.0667 -66.8167 167° South 480 552 34,500 -2,479 Descending San Center
Wed 12:49:00 19.9500 -66.7667 158° South 490 564 31,700 -2,650 Descending San Center
Wed 12:50:00 19.8167 -66.7000 155° Southeast 490 564 29,200 -2,826 Descending San Center
Wed 12:51:01 19.7000 -66.6333 152° Southeast 500 575 26,000 -3,421 Descending San Center
Wed 12:52:01 19.5667 -66.5667 155° Southeast 500 575 22,300 -3,400 Descending San Center
Wed 12:53:01 19.4500 -66.5000 152° Southeast 490 564 19,200 -3,421 Descending San Center
Wed 12:54:02 19.3333 -66.4500 158° South 460 529 15,400 -3,719 Descending San Center
Wed 12:55:02 19.2333 -66.3833 148° Southeast 410 472 11,700 -2,400 Descending San Center
Wed 12:56:02 19.1333 -66.3500 163° South 340 391 10,600 -1,041 Descending San Center
Wed 12:57:03 19.0500 -66.3167 159° South 310 357 9,600 -1,289 Descending San Center
Wed 12:58:03 18.9667 -66.3000 169° South 290 334 8,000 -1,400 Descending San Center
Wed 12:59:03 18.8833 -66.2833 169° South 280 322 6,800 -1,100 Descending San Center
Wed 13:00:03 18.8167 -66.2667 167° South 270 311 5,800 -942 Descending San Center
Wed 13:01:04 18.7333 -66.2500 169° South 270 311 4,900 -843 Descending San Center
Wed 13:02:04 18.6667 -66.2167 155° Southeast 260 299 4,100 -750 Descending San Center
Wed 13:03:04 18.6000 -66.2000 167° South 260 299 3,400 -843 Descending San Center
Wed 13:04:05 18.5333 -66.1667 155° Southeast 250 288 2,400 -694 Descending San Center
Wed 13:05:05 18.4667 -66.1500 167° South 220 253 2,000 -350 Descending San Center
Wed 13:06:05 18.4333 -66.1333 155° Southeast 150 173 1,700 -298 Descending San Center
Wed 13:07:06 18.4333 -66.0833 90° East 150 173 1,400 -496 Descending San Center
Wed 13:08:06 18.4333 -66.0500 90° East 110 127 700 -700 Descending San Center

Login

Don't have an account? Register now (free) for customized features, flight alerts, and more!